sensor_id;sensor_type;location;lat;lon;timestamp;P1;durP1;ratioP1;P2;durP2;ratioP2
49980;SDS011;35871;51.594;7.138;2024-03-23T06:41:42;7.00;;;2.28;;
49980;SDS011;35871;51.594;7.138;2024-03-23T06:46:44;3.10;;;1.73;;
49980;SDS011;35871;51.594;7.138;2024-03-23T06:51:45;6.35;;;2.47;;
49980;SDS011;35871;51.594;7.138;2024-03-23T06:56:48;6.68;;;2.78;;
49980;SDS011;35871;51.594;7.138;2024-03-23T07:01:49;6.53;;;2.03;;
49980;SDS011;35871;51.594;7.138;2024-03-23T07:06:50;4.53;;;2.15;;
49980;SDS011;35871;51.594;7.138;2024-03-23T07:11:53;3.88;;;1.58;;
49980;SDS011;35871;51.594;7.138;2024-03-23T07:16:54;5.63;;;2.47;;
49980;SDS011;35871;51.594;7.138;2024-03-23T07:27:22;3.53;;;1.55;;
49980;SDS011;35871;51.594;7.138;2024-03-23T07:32:23;4.38;;;1.70;;
49980;SDS011;35871;51.594;7.138;2024-03-23T07:37:26;3.47;;;1.63;;
49980;SDS011;35871;51.594;7.138;2024-03-23T07:42:28;4.63;;;2.15;;
49980;SDS011;35871;51.594;7.138;2024-03-23T07:47:29;6.07;;;2.47;;
49980;SDS011;35871;51.594;7.138;2024-03-23T07:52:33;6.18;;;2.80;;
49980;SDS011;35871;51.594;7.138;2024-03-23T07:57:34;8.30;;;3.10;;
49980;SDS011;35871;51.594;7.138;2024-03-23T08:02:35;5.88;;;1.98;;
49980;SDS011;35871;51.594;7.138;2024-03-23T08:07:36;5.65;;;1.80;;
49980;SDS011;35871;51.594;7.138;2024-03-23T08:17:38;5.78;;;2.13;;
49980;SDS011;35871;51.594;7.138;2024-03-23T08:22:39;6.65;;;1.85;;
49980;SDS011;35871;51.594;7.138;2024-03-23T08:27:40;6.60;;;2.63;;
49980;SDS011;35871;51.594;7.138;2024-03-23T08:32:42;6.72;;;2.30;;
49980;SDS011;35871;51.594;7.138;2024-03-23T08:37:49;6.70;;;2.53;;
49980;SDS011;35871;51.594;7.138;2024-03-23T08:42:50;5.60;;;2.15;;
49980;SDS011;35871;51.594;7.138;2024-03-23T08:47:56;4.43;;;1.90;;
49980;SDS011;35871;51.594;7.138;2024-03-23T08:58:25;8.15;;;2.80;;
49980;SDS011;35871;51.594;7.138;2024-03-23T09:03:38;6.40;;;1.95;;
49980;SDS011;35871;51.594;7.138;2024-03-23T09:08:48;5.45;;;1.98;;
49980;SDS011;35871;51.594;7.138;2024-03-23T09:13:49;6.90;;;1.88;;
49980;SDS011;35871;51.594;7.138;2024-03-23T09:18:51;6.22;;;2.40;;
49980;SDS011;35871;51.594;7.138;2024-03-23T09:23:52;6.40;;;2.38;;
49980;SDS011;35871;51.594;7.138;2024-03-23T09:29:03;7.47;;;2.47;;
49980;SDS011;35871;51.594;7.138;2024-03-23T09:34:08;4.10;;;1.95;;
49980;SDS011;35871;51.594;7.138;2024-03-23T09:39:09;5.75;;;2.38;;
49980;SDS011;35871;51.594;7.138;2024-03-23T09:49:47;3.63;;;1.50;;
49980;SDS011;35871;51.594;7.138;2024-03-23T09:54:49;4.90;;;1.60;;
49980;SDS011;35871;51.594;7.138;2024-03-23T09:59:50;4.78;;;1.42;;
49980;SDS011;35871;51.594;7.138;2024-03-23T10:04:51;6.55;;;1.75;;
49980;SDS011;35871;51.594;7.138;2024-03-23T10:09:52;4.22;;;1.30;;
49980;SDS011;35871;51.594;7.138;2024-03-23T10:14:53;6.55;;;1.70;;
49980;SDS011;35871;51.594;7.138;2024-03-23T10:19:55;5.38;;;1.48;;
49980;SDS011;35871;51.594;7.138;2024-03-23T10:24:57;6.13;;;1.70;;
49980;SDS011;35871;51.594;7.138;2024-03-23T10:40:17;4.68;;;1.65;;
49980;SDS011;35871;51.594;7.138;2024-03-23T10:45:18;6.95;;;1.90;;
49980;SDS011;35871;51.594;7.138;2024-03-23T10:50:19;4.25;;;1.55;;
49980;SDS011;35871;51.594;7.138;2024-03-23T10:55:20;5.50;;;1.75;;
49980;SDS011;35871;51.594;7.138;2024-03-23T11:00:23;4.97;;;1.42;;
49980;SDS011;35871;51.594;7.138;2024-03-23T11:05:28;4.70;;;1.38;;
49980;SDS011;35871;51.594;7.138;2024-03-23T11:10:30;3.60;;;1.40;;
49980;SDS011;35871;51.594;7.138;2024-03-23T11:15:33;5.30;;;1.50;;
49980;SDS011;35871;51.594;7.138;2024-03-23T11:20:34;4.22;;;1.30;;
49980;SDS011;35871;51.594;7.138;2024-03-23T11:25:35;4.03;;;1.20;;
49980;SDS011;35871;51.594;7.138;2024-03-23T11:30:37;2.65;;;1.10;;
49980;SDS011;35871;51.594;7.138;2024-03-23T11:35:41;3.33;;;1.15;;
49980;SDS011;35871;51.594;7.138;2024-03-23T11:40:43;3.42;;;1.30;;
49980;SDS011;35871;51.594;7.138;2024-03-23T11:45:45;2.67;;;0.98;;
49980;SDS011;35871;51.594;7.138;2024-03-23T11:50:46;4.03;;;1.50;;
49980;SDS011;35871;51.594;7.138;2024-03-23T12:01:02;4.20;;;1.17;;
49980;SDS011;35871;51.594;7.138;2024-03-23T12:06:03;4.75;;;1.95;;
49980;SDS011;35871;51.594;7.138;2024-03-23T12:16:11;4.68;;;1.48;;
49980;SDS011;35871;51.594;7.138;2024-03-23T12:21:12;6.50;;;2.22;;
49980;SDS011;35871;51.594;7.138;2024-03-23T12:26:13;3.20;;;1.33;;
49980;SDS011;35871;51.594;7.138;2024-03-23T12:31:18;2.60;;;1.08;;
49980;SDS011;35871;51.594;7.138;2024-03-23T12:36:19;4.00;;;1.90;;
49980;SDS011;35871;51.594;7.138;2024-03-23T12:41:20;3.33;;;1.20;;
49980;SDS011;35871;51.594;7.138;2024-03-23T12:46:21;3.35;;;1.27;;
49980;SDS011;35871;51.594;7.138;2024-03-23T12:51:23;3.08;;;1.00;;
49980;SDS011;35871;51.594;7.138;2024-03-23T12:56:24;3.30;;;1.10;;
49980;SDS011;35871;51.594;7.138;2024-03-23T13:01:25;3.30;;;1.20;;
49980;SDS011;35871;51.594;7.138;2024-03-23T13:06:26;3.83;;;1.45;;
49980;SDS011;35871;51.594;7.138;2024-03-23T13:11:34;3.83;;;1.27;;
49980;SDS011;35871;51.594;7.138;2024-03-23T13:21:39;2.97;;;1.20;;
49980;SDS011;35871;51.594;7.138;2024-03-23T13:26:42;3.55;;;1.75;;
49980;SDS011;35871;51.594;7.138;2024-03-23T13:31:43;2.35;;;1.10;;
49980;SDS011;35871;51.594;7.138;2024-03-23T13:36:49;3.58;;;1.30;;
49980;SDS011;35871;51.594;7.138;2024-03-23T13:41:51;4.13;;;1.50;;
49980;SDS011;35871;51.594;7.138;2024-03-23T13:51:55;4.00;;;2.15;;
49980;SDS011;35871;51.594;7.138;2024-03-23T13:57:31;2.78;;;1.10;;
49980;SDS011;35871;51.594;7.138;2024-03-23T14:02:52;2.38;;;1.17;;
49980;SDS011;35871;51.594;7.138;2024-03-23T14:12:54;5.65;;;1.50;;
49980;SDS011;35871;51.594;7.138;2024-03-23T14:18:03;2.80;;;1.25;;
49980;SDS011;35871;51.594;7.138;2024-03-23T14:23:04;3.33;;;1.15;;
49980;SDS011;35871;51.594;7.138;2024-03-23T14:28:06;3.78;;;1.55;;
49980;SDS011;35871;51.594;7.138;2024-03-23T14:33:13;3.50;;;1.13;;
49980;SDS011;35871;51.594;7.138;2024-03-23T14:43:15;5.93;;;1.38;;
49980;SDS011;35871;51.594;7.138;2024-03-23T14:48:17;2.72;;;0.90;;
49980;SDS011;35871;51.594;7.138;2024-03-23T14:58:19;2.92;;;1.00;;
49980;SDS011;35871;51.594;7.138;2024-03-23T15:08:21;4.55;;;1.08;;
49980;SDS011;35871;51.594;7.138;2024-03-23T15:13:22;2.60;;;0.85;;
49980;SDS011;35871;51.594;7.138;2024-03-23T15:18:24;3.42;;;1.10;;
49980;SDS011;35871;51.594;7.138;2024-03-23T15:23:29;2.78;;;1.02;;
49980;SDS011;35871;51.594;7.138;2024-03-23T15:33:43;3.38;;;0.88;;
49980;SDS011;35871;51.594;7.138;2024-03-23T15:43:45;2.97;;;0.90;;
49980;SDS011;35871;51.594;7.138;2024-03-23T15:53:47;2.88;;;0.98;;
49980;SDS011;35871;51.594;7.138;2024-03-23T15:58:52;3.40;;;1.02;;
49980;SDS011;35871;51.594;7.138;2024-03-23T16:08:55;3.78;;;1.08;;
49980;SDS011;35871;51.594;7.138;2024-03-23T16:18:56;3.28;;;1.13;;
49980;SDS011;35871;51.594;7.138;2024-03-23T16:28:58;3.75;;;1.27;;
49980;SDS011;35871;51.594;7.138;2024-03-23T16:33:59;3.60;;;1.10;;
49980;SDS011;35871;51.594;7.138;2024-03-23T16:44:01;2.13;;;1.00;;
49980;SDS011;35871;51.594;7.138;2024-03-23T16:54:03;3.17;;;1.05;;
49980;SDS011;35871;51.594;7.138;2024-03-23T16:59:04;1.40;;;0.73;;
49980;SDS011;35871;51.594;7.138;2024-03-23T17:09:06;2.80;;;1.15;;
49980;SDS011;35871;51.594;7.138;2024-03-23T17:14:09;1.55;;;0.70;;
49980;SDS011;35871;51.594;7.138;2024-03-23T17:19:12;2.05;;;0.80;;
49980;SDS011;35871;51.594;7.138;2024-03-23T17:24:13;1.40;;;0.60;;
49980;SDS011;35871;51.594;7.138;2024-03-23T17:34:15;1.90;;;0.80;;
49980;SDS011;35871;51.594;7.138;2024-03-23T17:44:17;1.42;;;0.75;;
49980;SDS011;35871;51.594;7.138;2024-03-23T17:54:19;2.13;;;0.77;;
49980;SDS011;35871;51.594;7.138;2024-03-23T17:59:20;1.05;;;0.75;;
49980;SDS011;35871;51.594;7.138;2024-03-23T18:04:21;1.73;;;0.80;;
49980;SDS011;35871;51.594;7.138;2024-03-23T18:09:22;1.83;;;0.70;;
49980;SDS011;35871;51.594;7.138;2024-03-23T18:14:23;1.45;;;0.65;;
49980;SDS011;35871;51.594;7.138;2024-03-23T18:19:24;1.95;;;0.75;;
49980;SDS011;35871;51.594;7.138;2024-03-23T18:24:25;1.92;;;0.80;;
49980;SDS011;35871;51.594;7.138;2024-03-23T18:29:26;2.05;;;0.90;;
49980;SDS011;35871;51.594;7.138;2024-03-23T18:34:28;1.98;;;0.70;;
49980;SDS011;35871;51.594;7.138;2024-03-23T18:39:29;2.72;;;0.90;;
49980;SDS011;35871;51.594;7.138;2024-03-23T18:44:30;1.95;;;0.95;;
49980;SDS011;35871;51.594;7.138;2024-03-23T18:49:31;2.47;;;1.27;;
49980;SDS011;35871;51.594;7.138;2024-03-23T18:54:32;3.00;;;1.10;;
49980;SDS011;35871;51.594;7.138;2024-03-23T18:59:33;1.92;;;1.00;;
49980;SDS011;35871;51.594;7.138;2024-03-23T19:04:34;1.13;;;0.80;;
49980;SDS011;35871;51.594;7.138;2024-03-23T19:09:35;3.63;;;1.75;;
49980;SDS011;35871;51.594;7.138;2024-03-23T19:14:36;2.00;;;1.20;;
49980;SDS011;35871;51.594;7.138;2024-03-23T19:19:39;1.92;;;1.05;;
49980;SDS011;35871;51.594;7.138;2024-03-23T19:24:40;2.45;;;1.45;;
49980;SDS011;35871;51.594;7.138;2024-03-23T19:29:41;2.90;;;1.80;;
49980;SDS011;35871;51.594;7.138;2024-03-23T19:34:43;1.85;;;1.05;;
49980;SDS011;35871;51.594;7.138;2024-03-23T19:39:44;2.60;;;1.17;;
49980;SDS011;35871;51.594;7.138;2024-03-23T19:44:46;2.53;;;1.38;;
49980;SDS011;35871;51.594;7.138;2024-03-23T19:49:47;2.13;;;1.40;;
49980;SDS011;35871;51.594;7.138;2024-03-23T19:54:48;2.25;;;1.10;;
49980;SDS011;35871;51.594;7.138;2024-03-23T19:59:49;2.58;;;1.55;;
49980;SDS011;35871;51.594;7.138;2024-03-23T20:04:50;1.90;;;1.23;;
